Norwegian Dawn — C6FT7 — position and weather

sailwx.info

Track history (hours):
 
Tides and Currents Weather Stations Pressure Air Temp Water Temp Dewpoint Dewpoint Depression Visibility Wind Speed Wind Dir Waves Ship Positions

Norwegian Dawn

Operator: Norwegian Cruise Line

Last reported at 2018-Aug-18 00:30 UTC. Time now 2018-Aug-18 00:47 UTC.
Position N 41°60' W 069°51'.

Type: Ship. MMSI: 311307000.

Date/timePositionNaut miles runAvg speedWind from/ knotsBaromVisibWave heightAir tempDewpointWater temp
2018-Aug-18 00:30N 41°60' W 069°51'1216.0
2018-Aug-17 23:47N 42°09' W 070°00'516.4
2018-Aug-17 23:31N 42°12' W 070°05'816.2
2018-Aug-17 23:00N 42°16' W 070°15'815.5
2018-Aug-17 22:30N 42°18' W 070°25'815.1
2018-Aug-17 22:00N 42°19' W 070°35'713.8
2018-Aug-17 21:30N 42°21' W 070°44'713.6
2018-Aug-17 21:00N 42°23' W 070°53'611.7
2018-Aug-17 20:30N 42°20' W 070°60'2 3.6
2018-Aug-17 20:00N 42°21' W 071°02'0 0.0
2018-Aug-17 19:27N 42°21' W 071°02'0 0.0
2018-Aug-17 19:00N 42°21' W 071°02'0 0.0
2018-Aug-17 18:30N 42°21' W 071°02'0 0.0
2018-Aug-17 18:00N 42°21' W 071°02'0 0.0
2018-Aug-17 17:30N 42°21' W 071°02'0 0.0
2018-Aug-17 16:58N 42°21' W 071°02'0 0.0
2018-Aug-17 16:30N 42°21' W 071°02'0 0.0
2018-Aug-17 16:00N 42°21' W 071°02'0 0.0
2018-Aug-17 15:30N 42°21' W 071°02'0 0.0
2018-Aug-17 15:00N 42°21' W 071°02'0 0.0
2018-Aug-17 14:31N 42°21' W 071°02'0 0.0
2018-Aug-17 13:30N 42°21' W 071°02'0 0.0
2018-Aug-17 13:00N 42°21' W 071°02'0 0.0
2018-Aug-17 12:30N 42°21' W 071°02'0 0.0
2018-Aug-17 12:00N 42°21' W 071°02'0 0.0
2018-Aug-17 11:30N 42°21' W 071°02'0 0.3
2018-Aug-17 11:00N 42°21' W 071°02'3 6.3
2018-Aug-17 10:30N 42°20' W 070°58'714.0
2018-Aug-17 10:00N 42°24' W 070°50'611.1
2018-Aug-17 09:30N 42°23' W 070°42'611.1
2018-Aug-17 09:01N 42°22' W 070°35'611.5
2018-Aug-17 08:30N 42°21' W 070°27'611.3
2018-Aug-17 08:00N 42°21' W 070°20'511.0
2018-Aug-17 07:31N 42°20' W 070°12'611.4
2018-Aug-17 07:00N 42°20' W 070°04'510.0
2018-Aug-17 06:30N 42°17' W 069°58'611.2
2018-Aug-17 06:00N 42°12' W 069°55'511.1
2018-Aug-17 05:31N 42°07' W 069°52'611.2
2018-Aug-17 05:00N 42°02' W 069°48'611.1
2018-Aug-17 04:26N 41°56' W 069°45'511.2
2018-Aug-17 04:00N 41°52' W 069°42'611.1
2018-Aug-17 03:30N 41°47' W 069°38'611.0
2018-Aug-17 03:00N 41°42' W 069°35'611.2
2018-Aug-17 02:31N 41°37' W 069°32'611.3
2018-Aug-17 02:00N 41°32' W 069°28'  
2018-Aug-14 09:00N 32°18' W 064°48'0 0.0 320 / 111021.0 5.4 26.024.631.0
2018-Aug-14 08:00N 32°18' W 064°48'0 0.0 320 / 151021.0 5.4 27.024.831.0
2018-Aug-14 07:00N 32°18' W 064°48'   320 / 151018.0 5.4 27.024.829.0
2018-Aug-11 08:00N 39°54' W 068°18'9921.2 090 / 91014.0 5.4 23.022.825.8
2018-Aug-11 03:19N 41°20' W 069°23'717.0
2018-Aug-11 02:54N 41°26' W 069°27'1816.0
2018-Aug-11 01:48N 41°42' W 069°39'515.9
2018-Aug-11 01:30N 41°46' W 069°42'715.3
2018-Aug-11 01:00N 41°52' W 069°46'815.7
2018-Aug-11 00:30N 41°59' W 069°51'815.6
2018-Aug-10 23:59N 42°07' W 069°56'715.4
2018-Aug-10 23:30N 42°11' W 070°04'815.2
2018-Aug-10 23:00N 42°15' W 070°13'815.0
2018-Aug-10 22:30N 42°18' W 070°22'816.0
2018-Aug-10 22:00N 42°19' W 070°33'815.5
2018-Aug-10 21:30N 42°21' W 070°43'714.4
2018-Aug-10 21:00N 42°23' W 070°53'611.6
2018-Aug-10 20:30N 42°20' W 071°00'1 2.9
2018-Aug-10 20:00N 42°21' W 071°02'0 0.0
2018-Aug-10 19:30N 42°21' W 071°02'0 0.0
2018-Aug-10 19:00N 42°21' W 071°02'0 0.0
2018-Aug-10 18:30N 42°21' W 071°02'0 0.0
2018-Aug-10 17:54N 42°21' W 071°02'0 0.0
2018-Aug-10 17:30N 42°21' W 071°02'0 0.0
2018-Aug-10 17:00N 42°21' W 071°02'0 0.0
2018-Aug-10 16:30N 42°21' W 071°02'0 0.0
2018-Aug-10 16:00N 42°21' W 071°02'0 0.0
2018-Aug-10 15:30N 42°21' W 071°02'0 0.0
2018-Aug-10 15:00N 42°21' W 071°02'0 0.0
2018-Aug-10 14:30N 42°21' W 071°02'0 0.0
2018-Aug-10 14:00N 42°21' W 071°02'0 0.0
2018-Aug-10 13:30N 42°21' W 071°02'0 0.0
2018-Aug-10 13:00N 42°21' W 071°02'0 0.0
2018-Aug-10 12:30N 42°21' W 071°02'0 0.0
2018-Aug-10 12:00N 42°21' W 071°02'0 0.0
2018-Aug-10 11:30N 42°21' W 071°02'0 0.3
2018-Aug-10 11:00N 42°21' W 071°02'4 7.0
2018-Aug-10 10:30N 42°20' W 070°57'713.7
2018-Aug-10 10:01N 42°24' W 070°49'510.1
2018-Aug-10 09:30N 42°23' W 070°43'510.9
2018-Aug-10 09:00N 42°22' W 070°35'611.6
2018-Aug-10 08:30N 42°21' W 070°28'611.2
2018-Aug-10 08:00N 42°20' W 070°20'510.9
2018-Aug-10 07:31N 42°20' W 070°13'611.2
2018-Aug-10 07:00N 42°20' W 070°05'510.2
2018-Aug-10 06:30N 42°18' W 069°59'611.0
2018-Aug-10 06:00N 42°13' W 069°55'611.4
2018-Aug-10 05:30N 42°08' W 069°52'611.1
2018-Aug-10 05:00N 42°03' W 069°49'510.9
2018-Aug-10 04:30N 41°58' W 069°46'  
Track history (hours):
 
Tides and Currents Weather Stations Pressure Air Temp Water Temp Dewpoint Dewpoint Depression Visibility Wind Speed Wind Dir Waves Ship Positions

Norwegian Dawn

Operator: Norwegian Cruise Line

Last reported at 2018-Aug-18 00:30 UTC. Time now 2018-Aug-18 00:47 UTC.
Position N 41°60' W 069°51'.

Type: Ship. MMSI: 311307000.

Date/timePositionNaut miles runAvg speedWind from/ knotsBaromVisibWave heightAir tempDewpointWater temp
2018-Aug-18 00:30N 41°60' W 069°51'1216.0
2018-Aug-17 23:47N 42°09' W 070°00'516.4
2018-Aug-17 23:31N 42°12' W 070°05'816.2
2018-Aug-17 23:00N 42°16' W 070°15'815.5
2018-Aug-17 22:30N 42°18' W 070°25'815.1
2018-Aug-17 22:00N 42°19' W 070°35'713.8
2018-Aug-17 21:30N 42°21' W 070°44'713.6
2018-Aug-17 21:00N 42°23' W 070°53'611.7
2018-Aug-17 20:30N 42°20' W 070°60'2 3.6
2018-Aug-17 20:00N 42°21' W 071°02'0 0.0
2018-Aug-17 19:27N 42°21' W 071°02'0 0.0
2018-Aug-17 19:00N 42°21' W 071°02'0 0.0
2018-Aug-17 18:30N 42°21' W 071°02'0 0.0
2018-Aug-17 18:00N 42°21' W 071°02'0 0.0
2018-Aug-17 17:30N 42°21' W 071°02'0 0.0
2018-Aug-17 16:58N 42°21' W 071°02'0 0.0
2018-Aug-17 16:30N 42°21' W 071°02'0 0.0
2018-Aug-17 16:00N 42°21' W 071°02'0 0.0
2018-Aug-17 15:30N 42°21' W 071°02'0 0.0
2018-Aug-17 15:00N 42°21' W 071°02'0 0.0
2018-Aug-17 14:31N 42°21' W 071°02'0 0.0
2018-Aug-17 13:30N 42°21' W 071°02'0 0.0
2018-Aug-17 13:00N 42°21' W 071°02'0 0.0
2018-Aug-17 12:30N 42°21' W 071°02'0 0.0
2018-Aug-17 12:00N 42°21' W 071°02'0 0.0
2018-Aug-17 11:30N 42°21' W 071°02'0 0.3
2018-Aug-17 11:00N 42°21' W 071°02'3 6.3
2018-Aug-17 10:30N 42°20' W 070°58'714.0
2018-Aug-17 10:00N 42°24' W 070°50'611.1
2018-Aug-17 09:30N 42°23' W 070°42'611.1
2018-Aug-17 09:01N 42°22' W 070°35'611.5
2018-Aug-17 08:30N 42°21' W 070°27'611.3
2018-Aug-17 08:00N 42°21' W 070°20'511.0
2018-Aug-17 07:31N 42°20' W 070°12'611.4
2018-Aug-17 07:00N 42°20' W 070°04'510.0
2018-Aug-17 06:30N 42°17' W 069°58'611.2
2018-Aug-17 06:00N 42°12' W 069°55'511.1
2018-Aug-17 05:31N 42°07' W 069°52'611.2
2018-Aug-17 05:00N 42°02' W 069°48'611.1
2018-Aug-17 04:26N 41°56' W 069°45'511.2
2018-Aug-17 04:00N 41°52' W 069°42'611.1
2018-Aug-17 03:30N 41°47' W 069°38'611.0
2018-Aug-17 03:00N 41°42' W 069°35'611.2
2018-Aug-17 02:31N 41°37' W 069°32'611.3
2018-Aug-17 02:00N 41°32' W 069°28'  
2018-Aug-14 09:00N 32°18' W 064°48'0 0.0 320 / 111021.0 5.4 26.024.631.0
2018-Aug-14 08:00N 32°18' W 064°48'0 0.0 320 / 151021.0 5.4 27.024.831.0
2018-Aug-14 07:00N 32°18' W 064°48'   320 / 151018.0 5.4 27.024.829.0
2018-Aug-11 08:00N 39°54' W 068°18'9921.2 090 / 91014.0 5.4 23.022.825.8
2018-Aug-11 03:19N 41°20' W 069°23'717.0
2018-Aug-11 02:54N 41°26' W 069°27'1816.0
2018-Aug-11 01:48N 41°42' W 069°39'515.9
2018-Aug-11 01:30N 41°46' W 069°42'715.3
2018-Aug-11 01:00N 41°52' W 069°46'815.7
2018-Aug-11 00:30N 41°59' W 069°51'815.6
2018-Aug-10 23:59N 42°07' W 069°56'715.4
2018-Aug-10 23:30N 42°11' W 070°04'815.2
2018-Aug-10 23:00N 42°15' W 070°13'815.0
2018-Aug-10 22:30N 42°18' W 070°22'816.0
2018-Aug-10 22:00N 42°19' W 070°33'815.5
2018-Aug-10 21:30N 42°21' W 070°43'714.4
2018-Aug-10 21:00N 42°23' W 070°53'611.6
2018-Aug-10 20:30N 42°20' W 071°00'1 2.9
2018-Aug-10 20:00N 42°21' W 071°02'0 0.0
2018-Aug-10 19:30N 42°21' W 071°02'0 0.0
2018-Aug-10 19:00N 42°21' W 071°02'0 0.0
2018-Aug-10 18:30N 42°21' W 071°02'0 0.0
2018-Aug-10 17:54N 42°21' W 071°02'0 0.0
2018-Aug-10 17:30N 42°21' W 071°02'0 0.0
2018-Aug-10 17:00N 42°21' W 071°02'0 0.0
2018-Aug-10 16:30N 42°21' W 071°02'0 0.0
2018-Aug-10 16:00N 42°21' W 071°02'0 0.0
2018-Aug-10 15:30N 42°21' W 071°02'0 0.0
2018-Aug-10 15:00N 42°21' W 071°02'0 0.0
2018-Aug-10 14:30N 42°21' W 071°02'0 0.0
2018-Aug-10 14:00N 42°21' W 071°02'0 0.0
2018-Aug-10 13:30N 42°21' W 071°02'0 0.0
2018-Aug-10 13:00N 42°21' W 071°02'0 0.0
2018-Aug-10 12:30N 42°21' W 071°02'0 0.0
2018-Aug-10 12:00N 42°21' W 071°02'0 0.0
2018-Aug-10 11:30N 42°21' W 071°02'0 0.3
2018-Aug-10 11:00N 42°21' W 071°02'4 7.0
2018-Aug-10 10:30N 42°20' W 070°57'713.7
2018-Aug-10 10:01N 42°24' W 070°49'510.1
2018-Aug-10 09:30N 42°23' W 070°43'510.9
2018-Aug-10 09:00N 42°22' W 070°35'611.6
2018-Aug-10 08:30N 42°21' W 070°28'611.2
2018-Aug-10 08:00N 42°20' W 070°20'510.9
2018-Aug-10 07:31N 42°20' W 070°13'611.2
2018-Aug-10 07:00N 42°20' W 070°05'510.2
2018-Aug-10 06:30N 42°18' W 069°59'611.0
2018-Aug-10 06:00N 42°13' W 069°55'611.4
2018-Aug-10 05:30N 42°08' W 069°52'611.1
2018-Aug-10 05:00N 42°03' W 069°49'510.9
2018-Aug-10 04:30N 41°58' W 069°46'  

Dump ship's entire track history